ΕΜΥ, Εθνική Μετεωρολογική Υπηρεσία - Δελτία Καιρού, Προγνώσεις

ΑΕΡΟΝΑΥΤΙΛΙΑ

GREEK AIRPORTS CODES

LGML 271300Z 35014KT 9999 FEW015 18/10 Q1016 RMK FEW040=

EUROPEAN AIRPORTS CODES

LFPO 280530Z AUTO 01009KT 9999 2200 NSC 14/08 Q1031 NOSIG=